Time;durP1;ratioP1;P1;durP2;ratioP2;P2;SDS_P1;SDS_P2;PMS_P1;PMS_P2;Temp;Humidity;BMP_temperature;BMP_pressure;BME280_temperature;BME280_humidity;BME280_pressure;Samples;Min_cycle;Max_cycle;Signal;HPM_P1;HPM_P2
2022/08/26 00:38:05;;;;;;;9.18;5.43;;;;;;;;;;4739577;30;20097;-85
2022/08/26 00:40:54;;;;;;;10.05;5.05;;;;;;;;;;4777302;30;20039;-86
2022/08/26 00:44:44;;;;;;;10.00;5.18;;;;;;;;;;4776099;29;20059;-86
2022/08/26 01:03:12;;;;;;;17.08;4.72;;;;;;;;;;4735591;30;20420;-87
2022/08/26 01:16:25;;;;;;;7.80;4.43;;;;;;;;;;4771811;29;20093;-86
2022/08/26 01:25:00;;;;;;;12.30;5.30;;;;;;;;;;4758135;30;20056;-86
2022/08/26 01:28:00;;;;;;;13.23;5.97;;;;;;;;;;4770352;29;20581;-84
2022/08/26 01:30:30;;;;;;;16.60;4.85;;;;;;;;;;4781595;29;20063;-84
2022/08/26 01:33:30;;;;;;;9.60;5.50;;;;;;;;;;4792633;29;20061;-85
2022/08/26 01:36:14;;;;;;;10.35;5.00;;;;;;;;;;4787076;29;20066;-86
2022/08/26 01:39:08;;;;;;;11.43;5.78;;;;;;;;;;4797924;29;20051;-85
2022/08/26 01:41:53;;;;;;;13.07;5.25;;;;;;;;;;4804834;29;20054;-85
2022/08/26 01:44:44;;;;;;;8.02;4.90;;;;;;;;;;4796723;29;20101;-84
2022/08/26 01:47:16;;;;;;;11.13;5.07;;;;;;;;;;4809795;29;20181;-83
2022/08/26 01:49:50;;;;;;;10.70;5.47;;;;;;;;;;4814270;29;20046;-84
2022/08/26 01:52:27;;;;;;;13.00;5.50;;;;;;;;;;4841592;29;20104;-83
2022/08/26 01:54:57;;;;;;;9.10;4.75;;;;;;;;;;4855309;29;20057;-83
2022/08/26 01:57:27;;;;;;;12.27;6.25;;;;;;;;;;4854853;29;20477;-83
2022/08/26 01:59:58;;;;;;;11.30;5.25;;;;;;;;;;4841608;29;20095;-83
2022/08/26 02:02:31;;;;;;;11.07;4.78;;;;;;;;;;4856753;29;20195;-84
2022/08/26 02:05:04;;;;;;;18.98;5.63;;;;;;;;;;4859716;29;20053;-85
2022/08/26 02:12:50;;;;;;;11.25;5.30;;;;;;;;;;5008292;28;20069;-85
2022/08/26 03:24:20;;;;;;;15.77;6.13;;;;;;;;;;5011427;28;20034;-83
2022/08/26 03:27:18;;;;;;;14.05;5.90;;;;;;;;;;5010097;28;20038;-84
2022/08/26 03:33:00;;;;;;;13.75;5.95;;;;;;;;;;4978286;28;20422;-85
2022/08/26 03:35:56;;;;;;;15.15;6.53;;;;;;;;;;4960433;28;20038;-85
2022/08/26 03:39:02;;;;;;;12.63;6.20;;;;;;;;;;4994630;28;20050;-85
2022/08/26 03:42:14;;;;;;;16.45;6.63;;;;;;;;;;4986168;28;20096;-85
2022/08/26 04:02:49;;;;;;;11.15;6.32;;;;;;;;;;4915618;29;20075;-83
2022/08/26 04:05:52;;;;;;;8.88;5.60;;;;;;;;;;4931207;29;20144;-85
2022/08/26 04:09:24;;;;;;;12.68;5.85;;;;;;;;;;4906765;29;20086;-86
2022/08/26 04:12:54;;;;;;;10.00;5.28;;;;;;;;;;4881842;29;20057;-85
2022/08/26 04:15:38;;;;;;;10.32;6.10;;;;;;;;;;4870013;29;20509;-85
2022/08/26 04:19:05;;;;;;;13.77;5.63;;;;;;;;;;4889107;29;20057;-84
2022/08/26 04:21:37;;;;;;;14.30;6.78;;;;;;;;;;4869258;29;21079;-84
2022/08/26 04:24:05;;;;;;;11.27;5.88;;;;;;;;;;4888364;29;20197;-85
2022/08/26 04:27:40;;;;;;;13.27;6.97;;;;;;;;;;4879649;29;20068;-85
2022/08/26 04:30:45;;;;;;;13.55;6.95;;;;;;;;;;4873529;29;20567;-85
2022/08/26 04:52:16;;;;;;;15.50;8.07;;;;;;;;;;4841364;29;20037;-85
2022/08/26 04:54:58;;;;;;;17.52;7.07;;;;;;;;;;4836706;29;20124;-85
2022/08/26 04:57:40;;;;;;;12.77;7.55;;;;;;;;;;4855491;29;20099;-84
2022/08/26 05:00:22;;;;;;;12.07;6.63;;;;;;;;;;4849742;29;20128;-85
2022/08/26 05:03:28;;;;;;;13.50;7.35;;;;;;;;;;4843381;29;20062;-84
2022/08/26 05:06:04;;;;;;;16.45;6.95;;;;;;;;;;4866148;29;20057;-85
2022/08/26 05:08:32;;;;;;;12.68;7.40;;;;;;;;;;4995682;23;20049;-93
2022/08/26 05:11:27;;;;;;;13.50;7.47;;;;;;;;;;5016024;28;20042;-94
2022/08/26 05:13:54;;;;;;;15.80;7.28;;;;;;;;;;4966893;28;20060;-94
2022/08/26 05:16:27;;;;;;;15.23;7.53;;;;;;;;;;4984141;28;20132;-95
2022/08/26 05:18:57;;;;;;;15.43;7.88;;;;;;;;;;4983599;28;20382;-94
2022/08/26 05:21:48;;;;;;;13.05;7.25;;;;;;;;;;4982681;28;20038;-95
2022/08/26 05:24:19;;;;;;;16.88;7.90;;;;;;;;;;4983721;28;20046;-95
2022/08/26 05:26:46;;;;;;;12.63;6.88;;;;;;;;;;5015545;28;20053;-95
2022/08/26 05:29:15;;;;;;;16.45;8.45;;;;;;;;;;4984038;28;20136;-95
2022/08/26 05:31:42;;;;;;;16.65;7.95;;;;;;;;;;4983355;28;20049;-95
2022/08/26 05:34:10;;;;;;;16.77;7.95;;;;;;;;;;4986154;28;20568;-94
2022/08/26 05:36:39;;;;;;;16.75;7.93;;;;;;;;;;4970996;28;20491;-95
2022/08/26 05:39:20;;;;;;;15.55;7.43;;;;;;;;;;5002804;28;20041;-94
2022/08/26 05:41:49;;;;;;;10.52;7.28;;;;;;;;;;4987021;28;20049;-95
2022/08/26 05:44:19;;;;;;;16.70;7.50;;;;;;;;;;4971412;28;20046;-95
2022/08/26 05:49:40;;;;;;;15.00;7.25;;;;;;;;;;5002242;28;20136;-94
2022/08/26 05:52:18;;;;;;;13.38;7.53;;;;;;;;;;4986587;28;20046;-96
2022/08/26 05:54:53;;;;;;;20.60;7.88;;;;;;;;;;5018367;28;20038;-95
2022/08/26 05:57:46;;;;;;;15.20;7.38;;;;;;;;;;4990252;28;20042;-95
2022/08/26 06:00:15;;;;;;;17.58;7.80;;;;;;;;;;5001555;28;20486;-93
2022/08/26 06:02:42;;;;;;;11.63;7.50;;;;;;;;;;4970709;28;20046;-94
2022/08/26 06:05:14;;;;;;;11.95;7.03;;;;;;;;;;4987080;28;20042;-94
2022/08/26 06:10:32;;;;;;;14.20;8.23;;;;;;;;;;5002091;28;20073;-93
2022/08/26 06:13:00;;;;;;;14.30;7.85;;;;;;;;;;4987102;28;20077;-93
2022/08/26 06:15:45;;;;;;;15.23;8.60;;;;;;;;;;5002429;28;20041;-94
2022/08/26 06:18:15;;;;;;;19.95;8.80;;;;;;;;;;5002257;28;20080;-94
2022/08/26 06:20:44;;;;;;;16.73;8.25;;;;;;;;;;5018575;28;20571;-95
2022/08/26 06:26:15;;;;;;;15.75;8.43;;;;;;;;;;5002275;28;20056;-95
2022/08/26 06:28:42;;;;;;;19.67;8.98;;;;;;;;;;5002423;28;20070;-94
2022/08/26 06:31:14;;;;;;;16.52;8.95;;;;;;;;;;5002963;28;20034;-94
2022/08/26 06:33:43;;;;;;;17.30;8.60;;;;;;;;;;4987975;28;20041;-93
2022/08/26 06:36:24;;;;;;;15.63;8.43;;;;;;;;;;5002150;28;20056;-93
2022/08/26 06:38:54;;;;;;;26.60;9.48;;;;;;;;;;4970131;28;20054;-92
2022/08/26 06:41:22;;;;;;;17.67;8.23;;;;;;;;;;4985915;28;20069;-93
2022/08/26 06:43:51;;;;;;;17.52;8.93;;;;;;;;;;4968764;28;20054;-94
2022/08/26 06:46:20;;;;;;;16.60;8.90;;;;;;;;;;5001840;28;20069;-94
2022/08/26 06:48:48;;;;;;;21.50;9.07;;;;;;;;;;4971815;28;20038;-94
2022/08/26 06:51:22;;;;;;;15.05;7.70;;;;;;;;;;5018324;28;20478;-93
2022/08/26 06:53:52;;;;;;;18.20;8.60;;;;;;;;;;5001374;28;20052;-93
2022/08/26 06:56:46;;;;;;;;;;;;;;;;;;5005222;28;20041;-92
2022/08/26 06:59:14;;;;;;;16.05;7.65;;;;;;;;;;5001350;28;20370;-93
2022/08/26 07:01:46;;;;;;;16.58;8.32;;;;;;;;;;5001328;28;20033;-93
2022/08/26 07:04:40;;;;;;;18.55;7.53;;;;;;;;;;5019071;28;20049;-93
2022/08/26 07:07:14;;;;;;;18.10;7.70;;;;;;;;;;4985583;28;20065;-94
2022/08/26 07:09:46;;;;;;;23.25;8.40;;;;;;;;;;5000934;28;20038;-94
2022/08/26 07:12:44;;;;;;;11.60;7.55;;;;;;;;;;4989360;28;20501;-94
2022/08/26 07:15:40;;;;;;;16.75;7.72;;;;;;;;;;5018169;28;20034;-94
2022/08/26 07:18:08;;;;;;;19.73;8.07;;;;;;;;;;4984777;28;20437;-95
2022/08/26 07:20:39;;;;;;;13.35;7.18;;;;;;;;;;4985407;28;20053;-94
2022/08/26 07:23:14;;;;;;;17.13;7.70;;;;;;;;;;4985284;28;20053;-94
2022/08/26 07:26:14;;;;;;;16.23;7.90;;;;;;;;;;4988172;28;20038;-94
2022/08/26 07:28:45;;;;;;;16.38;7.63;;;;;;;;;;5001002;28;20038;-94
2022/08/26 07:31:14;;;;;;;15.07;7.28;;;;;;;;;;4985506;28;20097;-93
2022/08/26 07:33:43;;;;;;;15.50;7.57;;;;;;;;;;5000891;28;20502;-94
2022/08/26 07:36:17;;;;;;;13.05;7.05;;;;;;;;;;4985141;28;20046;-93
2022/08/26 07:38:51;;;;;;;20.58;8.15;;;;;;;;;;5001192;28;20153;-93
2022/08/26 07:41:24;;;;;;;17.05;7.32;;;;;;;;;;5000632;28;20398;-94
2022/08/26 07:44:17;;;;;;;13.70;6.65;;;;;;;;;;4988466;28;20041;-94
2022/08/26 07:46:44;;;;;;;19.58;7.82;;;;;;;;;;4984417;28;20111;-93
2022/08/26 07:49:29;;;;;;;17.55;8.60;;;;;;;;;;4985332;28;20104;-95
2022/08/26 07:52:03;;;;;;;13.23;7.88;;;;;;;;;;4984047;28;20045;-95
2022/08/26 07:54:30;;;;;;;10.30;7.50;;;;;;;;;;5002042;28;20034;-95
2022/08/26 07:56:58;;;;;;;16.05;7.43;;;;;;;;;;4969075;28;20453;-96
2022/08/26 07:59:26;;;;;;;14.75;6.68;;;;;;;;;;4985756;28;20100;-95
2022/08/26 08:02:18;;;;;;;13.70;7.63;;;;;;;;;;5000859;28;20426;-96
2022/08/26 08:04:46;;;;;;;13.65;7.00;;;;;;;;;;4984337;28;20053;-94
2022/08/26 08:07:14;;;;;;;16.08;7.10;;;;;;;;;;4967470;28;20053;-93
2022/08/26 08:09:50;;;;;;;15.70;6.80;;;;;;;;;;5000006;28;20390;-93
2022/08/26 08:12:19;;;;;;;11.90;6.47;;;;;;;;;;5000123;28;20037;-94
2022/08/26 08:14:51;;;;;;;14.02;6.50;;;;;;;;;;5001003;28;20042;-95
2022/08/26 08:17:18;;;;;;;14.30;7.32;;;;;;;;;;4984444;28;20399;-95
2022/08/26 08:20:12;;;;;;;11.63;6.75;;;;;;;;;;4983627;28;20121;-94
2022/08/26 08:23:08;;;;;;;13.45;7.35;;;;;;;;;;4984086;28;20493;-94
2022/08/26 08:25:41;;;;;;;16.60;6.65;;;;;;;;;;5000036;28;20045;-96
2022/08/26 08:28:08;;;;;;;14.60;6.80;;;;;;;;;;4968618;28;20058;-94
2022/08/26 08:30:39;;;;;;;13.77;6.97;;;;;;;;;;4983200;28;20069;-95
2022/08/26 08:33:07;;;;;;;12.25;6.68;;;;;;;;;;4983410;28;20077;-94
2022/08/26 08:36:04;;;;;;;11.13;6.70;;;;;;;;;;4989432;28;20038;-96
2022/08/26 08:38:36;;;;;;;11.15;6.05;;;;;;;;;;5000187;28;20038;-95
2022/08/26 08:41:05;;;;;;;13.73;7.35;;;;;;;;;;5000320;28;20064;-96
2022/08/26 08:43:43;;;;;;;13.75;6.95;;;;;;;;;;4982812;28;20053;-95
2022/08/26 08:46:15;;;;;;;15.35;6.35;;;;;;;;;;4999723;28;20042;-96
2022/08/26 08:48:55;;;;;;;11.00;6.55;;;;;;;;;;4983498;28;20049;-95
2022/08/26 08:52:35;;;;;;;12.77;6.45;;;;;;;;;;4999573;28;20488;-95
2022/08/26 08:55:05;;;;;;;15.05;6.50;;;;;;;;;;4980352;28;20054;-96
2022/08/26 09:01:07;;;;;;;8.82;6.30;;;;;;;;;;4999255;28;20141;-95
2022/08/26 09:08:11;;;;;;;10.68;6.07;;;;;;;;;;4997653;28;20044;-95
2022/08/26 09:10:43;;;;;;;13.18;6.25;;;;;;;;;;4966010;28;20088;-96
2022/08/26 09:13:16;;;;;;;11.23;6.20;;;;;;;;;;4982818;28;20057;-96
2022/08/26 09:16:02;;;;;;;11.13;6.38;;;;;;;;;;4967683;28;20046;-96
2022/08/26 09:18:58;;;;;;;12.95;5.97;;;;;;;;;;4984894;28;20069;-96
2022/08/26 09:21:35;;;;;;;14.45;5.68;;;;;;;;;;4983084;28;20368;-96
2022/08/26 09:24:03;;;;;;;10.90;6.15;;;;;;;;;;4998722;28;20128;-96
2022/08/26 09:26:57;;;;;;;12.52;5.78;;;;;;;;;;4971398;28;20040;-96
2022/08/26 09:30:03;;;;;;;12.70;5.65;;;;;;;;;;4989062;28;20469;-96
2022/08/26 09:33:03;;;;;;;;;;;;;;;;;;4999815;28;20101;-96
2022/08/26 09:35:42;;;;;;;12.20;5.53;;;;;;;;;;5015469;28;19921;-96
2022/08/26 09:38:46;;;;;;;13.55;5.68;;;;;;;;;;4985810;28;20487;-96
2022/08/26 10:54:23;;;;;;;13.18;4.75;;;;;;;;;;4984705;28;20480;-85
2022/08/26 10:57:26;;;;;;;11.45;4.90;;;;;;;;;;4985594;28;20041;-86
2022/08/26 11:03:45;;;;;;;17.45;4.80;;;;;;;;;;5013348;28;20081;-85
2022/08/26 11:06:30;;;;;;;18.65;4.97;;;;;;;;;;5001016;28;20041;-85
2022/08/26 11:10:16;;;;;;;18.77;4.95;;;;;;;;;;4899695;29;20052;-83
2022/08/26 11:14:02;;;;;;;18.77;5.28;;;;;;;;;;4956577;28;20057;-83
2022/08/26 11:16:42;;;;;;;11.43;4.50;;;;;;;;;;5498629;23;20049;-96
2022/08/26 11:19:40;;;;;;;13.15;4.47;;;;;;;;;;4951885;28;20047;-96
2022/08/26 11:22:36;;;;;;;16.33;4.72;;;;;;;;;;4964297;28;20039;-96
2022/08/26 11:25:59;;;;;;;15.55;4.85;;;;;;;;;;4952017;28;20134;-96
2022/08/26 11:28:35;;;;;;;11.23;4.53;;;;;;;;;;4932668;28;20042;-96
2022/08/26 11:31:08;;;;;;;13.55;5.15;;;;;;;;;;4965973;28;20039;-96
2022/08/26 11:34:02;;;;;;;11.88;4.28;;;;;;;;;;4968802;28;20058;-96
2022/08/26 11:36:48;;;;;;;13.02;4.25;;;;;;;;;;4965747;28;20047;-96
2022/08/26 11:39:54;;;;;;;12.40;5.30;;;;;;;;;;4987484;28;20067;-96
2022/08/26 11:42:31;;;;;;;16.80;4.50;;;;;;;;;;4885597;29;20052;-96
2022/08/26 11:45:59;;;;;;;17.20;4.90;;;;;;;;;;4870068;29;20060;-96
2022/08/26 11:48:40;;;;;;;8.10;3.92;;;;;;;;;;4817948;29;20089;-96
2022/08/26 11:51:22;;;;;;;15.48;4.95;;;;;;;;;;4821643;29;20411;-96
2022/08/26 11:54:06;;;;;;;13.65;4.60;;;;;;;;;;4814985;29;20094;-96
2022/08/26 11:57:13;;;;;;;13.95;4.65;;;;;;;;;;4821237;29;20110;-96
2022/08/26 12:00:54;;;;;;;11.18;4.75;;;;;;;;;;4814641;29;20073;-96
2022/08/26 12:03:34;;;;;;;13.05;4.47;;;;;;;;;;4826814;29;20054;-96
2022/08/26 12:06:11;;;;;;;16.17;4.53;;;;;;;;;;4815574;29;20046;-95
2022/08/26 12:08:46;;;;;;;12.52;4.20;;;;;;;;;;4800717;29;20077;-94
2022/08/26 12:11:26;;;;;;;11.10;5.00;;;;;;;;;;4798755;29;20460;-96
2022/08/26 12:14:00;;;;;;;17.33;5.22;;;;;;;;;;4796862;29;20050;-96
2022/08/26 12:16:31;;;;;;;9.68;4.72;;;;;;;;;;4831231;29;20466;-96
2022/08/26 12:19:34;;;;;;;11.60;4.55;;;;;;;;;;4886234;29;20071;-96
2022/08/26 12:22:17;;;;;;;12.88;4.75;;;;;;;;;;4900499;29;20040;-95
2022/08/26 12:24:50;;;;;;;10.05;4.70;;;;;;;;;;4946651;28;20043;-95
2022/08/26 12:27:34;;;;;;;11.77;5.03;;;;;;;;;;4962081;28;20128;-96
2022/08/26 12:30:08;;;;;;;12.15;4.97;;;;;;;;;;4948542;23;20047;-82
2022/08/26 12:32:50;;;;;;;11.48;4.85;;;;;;;;;;4982642;28;20046;-84
2022/08/26 12:35:43;;;;;;;15.10;4.40;;;;;;;;;;4962940;28;20050;-84
2022/08/26 12:38:10;;;;;;;15.98;4.72;;;;;;;;;;4981774;28;20046;-84
2022/08/26 12:40:45;;;;;;;12.23;5.40;;;;;;;;;;4966586;28;20038;-84
2022/08/26 12:43:42;;;;;;;14.48;4.35;;;;;;;;;;4985055;28;20505;-83
2022/08/26 12:46:15;;;;;;;8.00;4.47;;;;;;;;;;4982738;28;20541;-84
2022/08/26 12:48:47;;;;;;;11.75;5.05;;;;;;;;;;4984070;28;20548;-84
2022/08/26 12:51:22;;;;;;;13.35;5.00;;;;;;;;;;4984097;28;20038;-84
2022/08/26 12:53:58;;;;;;;10.00;4.85;;;;;;;;;;4964284;28;20042;-84
2022/08/26 12:57:39;;;;;;;9.20;4.57;;;;;;;;;;4980832;28;20054;-85
2022/08/26 13:00:36;;;;;;;12.18;4.60;;;;;;;;;;4949426;28;20053;-85
2022/08/26 13:03:50;;;;;;;14.82;4.97;;;;;;;;;;4940856;28;20953;-85
2022/08/26 13:06:35;;;;;;;16.23;5.00;;;;;;;;;;4979220;28;20126;-85
2022/08/26 13:12:32;;;;;;;17.02;5.40;;;;;;;;;;4980299;28;20134;-85
2022/08/26 13:15:06;;;;;;;18.45;5.40;;;;;;;;;;4982809;28;20116;-85
2022/08/26 13:17:49;;;;;;;17.17;5.60;;;;;;;;;;4960062;28;20424;-85
2022/08/26 13:20:42;;;;;;;15.48;5.60;;;;;;;;;;4989526;28;20034;-85
2022/08/26 13:23:18;;;;;;;14.50;6.53;;;;;;;;;;4985830;28;20030;-84
2022/08/26 13:25:46;;;;;;;12.07;5.45;;;;;;;;;;4993010;28;20053;-84
2022/08/26 13:28:14;;;;;;;14.07;5.72;;;;;;;;;;4991431;28;20038;-84
2022/08/26 13:30:49;;;;;;;12.48;5.85;;;;;;;;;;4987046;28;20110;-85
2022/08/26 13:33:24;;;;;;;12.43;5.00;;;;;;;;;;4974370;28;20053;-84
2022/08/26 13:35:55;;;;;;;10.05;5.40;;;;;;;;;;4994506;28;20046;-85
2022/08/26 13:38:23;;;;;;;12.77;6.68;;;;;;;;;;4961332;28;20035;-85
2022/08/26 13:41:10;;;;;;;10.70;5.35;;;;;;;;;;4968789;28;20539;-84
2022/08/26 13:43:46;;;;;;;12.63;6.95;;;;;;;;;;4972037;28;20113;-83
2022/08/26 13:46:18;;;;;;;15.75;7.15;;;;;;;;;;4991261;28;20578;-83
2022/08/26 13:48:57;;;;;;;16.52;6.95;;;;;;;;;;4971954;28;20054;-83
2022/08/26 13:51:31;;;;;;;15.27;6.75;;;;;;;;;;5000811;28;20049;-82
2022/08/26 13:54:05;;;;;;;12.25;6.30;;;;;;;;;;4998010;28;20035;-82
2022/08/26 13:56:34;;;;;;;12.73;6.10;;;;;;;;;;5002509;28;20054;-82
2022/08/26 13:59:04;;;;;;;14.07;6.05;;;;;;;;;;5002218;28;20052;-83
2022/08/26 14:01:34;;;;;;;13.27;6.28;;;;;;;;;;4967870;28;20264;-83
2022/08/26 14:04:02;;;;;;;20.08;7.38;;;;;;;;;;4985705;28;20451;-83
2022/08/26 14:06:36;;;;;;;13.77;6.57;;;;;;;;;;5000727;28;20046;-82
2022/08/26 14:09:04;;;;;;;14.55;7.10;;;;;;;;;;4985908;28;20048;-83
2022/08/26 14:11:32;;;;;;;13.60;7.25;;;;;;;;;;4984104;28;20070;-82
2022/08/26 14:14:21;;;;;;;14.15;6.82;;;;;;;;;;4989365;28;20653;-83
2022/08/26 14:17:18;;;;;;;10.68;7.13;;;;;;;;;;4970754;28;20041;-83
2022/08/26 14:19:49;;;;;;;13.98;6.90;;;;;;;;;;4991361;28;20138;-83
2022/08/26 14:22:19;;;;;;;11.82;7.80;;;;;;;;;;4976731;28;20030;-82
2022/08/26 14:24:47;;;;;;;14.65;7.55;;;;;;;;;;4991323;28;20798;-83
2022/08/26 14:27:14;;;;;;;11.98;7.10;;;;;;;;;;4973211;28;20069;-83
2022/08/26 14:29:42;;;;;;;18.35;7.75;;;;;;;;;;4988699;28;20038;-83
2022/08/26 14:32:24;;;;;;;13.77;7.72;;;;;;;;;;4984964;28;20639;-82
2022/08/26 14:34:53;;;;;;;19.75;6.95;;;;;;;;;;4994193;28;20080;-83
2022/08/26 14:37:21;;;;;;;17.88;7.43;;;;;;;;;;4975986;28;20174;-84
2022/08/26 14:39:48;;;;;;;19.85;7.50;;;;;;;;;;4993890;28;20051;-83
2022/08/26 14:42:25;;;;;;;17.60;7.38;;;;;;;;;;4997618;28;20648;-82
2022/08/26 14:45:02;;;;;;;19.73;7.18;;;;;;;;;;4995750;28;20346;-83
2022/08/26 14:48:20;;;;;;;14.48;6.18;;;;;;;;;;4996189;28;20042;-82
2022/08/26 14:50:48;;;;;;;12.52;6.72;;;;;;;;;;4960496;28;20065;-83
2022/08/26 14:54:11;;;;;;;13.05;6.53;;;;;;;;;;4992616;28;20667;-83
2022/08/26 14:57:07;;;;;;;13.45;5.57;;;;;;;;;;4981081;28;20137;-82
2022/08/26 15:00:00;;;;;;;15.88;6.40;;;;;;;;;;4992342;28;20046;-82
2022/08/26 15:02:28;;;;;;;12.20;5.47;;;;;;;;;;4953580;28;20194;-83
2022/08/26 15:05:32;;;;;;;12.60;5.50;;;;;;;;;;4993628;28;20097;-82
2022/08/26 15:08:01;;;;;;;10.82;4.70;;;;;;;;;;4973699;28;20066;-82
2022/08/26 15:10:28;;;;;;;7.90;4.65;;;;;;;;;;4990395;28;20679;-81
2022/08/26 15:12:56;;;;;;;10.68;4.75;;;;;;;;;;4979374;28;20042;-81
2022/08/26 15:15:28;;;;;;;9.95;5.03;;;;;;;;;;4995662;28;20109;-81
2022/08/26 15:17:56;;;;;;;9.35;4.32;;;;;;;;;;4967886;28;20341;-82
2022/08/26 15:20:24;;;;;;;10.40;4.65;;;;;;;;;;4983462;28;20034;-82
2022/08/26 15:23:16;;;;;;;7.45;4.45;;;;;;;;;;4999943;28;20101;-82
2022/08/26 15:25:48;;;;;;;6.75;4.50;;;;;;;;;;4980789;28;20050;-83
2022/08/26 15:28:16;;;;;;;7.05;4.72;;;;;;;;;;5002184;28;20156;-83
2022/08/26 15:31:10;;;;;;;7.55;4.35;;;;;;;;;;4990660;28;20050;-82
2022/08/26 15:34:08;;;;;;;8.15;3.90;;;;;;;;;;5002362;28;20038;-83
2022/08/26 15:36:44;;;;;;;10.00;4.60;;;;;;;;;;4993932;28;20042;-82
2022/08/26 15:39:14;;;;;;;8.85;4.50;;;;;;;;;;4993751;28;20045;-81
2022/08/26 15:41:42;;;;;;;5.88;4.00;;;;;;;;;;4998220;28;20034;-83
2022/08/26 15:44:12;;;;;;;10.32;3.97;;;;;;;;;;4995042;28;20050;-82
2022/08/26 15:46:41;;;;;;;6.72;4.35;;;;;;;;;;4989239;28;20042;-82
2022/08/26 15:49:15;;;;;;;7.40;4.17;;;;;;;;;;4977090;28;20068;-82
2022/08/26 15:51:49;;;;;;;8.23;4.53;;;;;;;;;;4995346;28;20293;-81
2022/08/26 15:54:19;;;;;;;7.43;4.00;;;;;;;;;;4993949;28;20121;-81
2022/08/26 15:56:49;;;;;;;9.55;3.97;;;;;;;;;;4975692;28;20053;-81
2022/08/26 15:59:22;;;;;;;5.88;3.45;;;;;;;;;;4992547;28;20062;-81
2022/08/26 16:02:40;;;;;;;6.28;2.45;;;;;;;;;;4995701;28;20030;-81
2022/08/26 16:05:12;;;;;;;5.43;2.92;;;;;;;;;;4980202;28;20129;-82
2022/08/26 16:07:40;;;;;;;5.47;3.05;;;;;;;;;;4996196;28;20679;-82
2022/08/26 16:10:34;;;;;;;4.30;2.63;;;;;;;;;;4997203;28;20034;-82
2022/08/26 16:13:28;;;;;;;4.00;2.25;;;;;;;;;;4988603;28;20050;-82
2022/08/26 16:16:22;;;;;;;4.80;2.30;;;;;;;;;;4999384;28;20487;-82
2022/08/26 16:19:20;;;;;;;4.72;2.30;;;;;;;;;;4992464;28;20043;-82
2022/08/26 16:21:50;;;;;;;7.25;2.40;;;;;;;;;;4988735;28;20047;-82
2022/08/26 16:24:42;;;;;;;4.93;2.53;;;;;;;;;;4964946;28;20033;-82
2022/08/26 16:27:15;;;;;;;4.18;2.08;;;;;;;;;;4988798;28;20073;-82
2022/08/26 16:29:46;;;;;;;3.72;1.92;;;;;;;;;;4988668;28;20475;-82
2022/08/26 16:32:45;;;;;;;4.47;2.00;;;;;;;;;;4990664;28;20061;-83
2022/08/26 16:35:18;;;;;;;6.23;2.53;;;;;;;;;;4988785;28;20131;-82
2022/08/26 16:37:46;;;;;;;4.43;2.25;;;;;;;;;;4994655;28;20042;-82
2022/08/26 16:40:14;;;;;;;4.45;2.42;;;;;;;;;;4994541;28;20042;-83
2022/08/26 16:42:42;;;;;;;4.72;2.28;;;;;;;;;;4990101;28;20431;-82
2022/08/26 16:45:36;;;;;;;4.30;2.17;;;;;;;;;;4952471;28;20069;-82
2022/08/26 16:48:12;;;;;;;8.00;2.47;;;;;;;;;;4980876;28;20042;-82
2022/08/26 16:51:08;;;;;;;6.55;2.53;;;;;;;;;;5000179;28;20061;-82
2022/08/26 16:54:01;;;;;;;5.60;2.85;;;;;;;;;;4980936;28;20499;-81
2022/08/26 16:56:30;;;;;;;7.78;2.88;;;;;;;;;;4977864;28;20050;-83
2022/08/26 17:02:44;;;;;;;6.55;2.60;;;;;;;;;;4957849;28;20076;-83
2022/08/26 17:05:36;;;;;;;6.80;2.70;;;;;;;;;;4996219;28;20042;-83
2022/08/26 17:08:04;;;;;;;6.95;2.78;;;;;;;;;;4988658;28;20047;-83
2022/08/26 17:10:37;;;;;;;5.50;2.47;;;;;;;;;;4993189;28;20062;-83
2022/08/26 17:13:04;;;;;;;4.57;2.78;;;;;;;;;;4986830;28;20069;-83
2022/08/26 17:15:32;;;;;;;4.40;2.60;;;;;;;;;;4984530;28;20461;-83
2022/08/26 17:18:23;;;;;;;6.07;3.30;;;;;;;;;;4966870;28;20049;-84
2022/08/26 17:21:18;;;;;;;10.15;3.15;;;;;;;;;;4972584;28;20548;-85
2022/08/26 17:23:46;;;;;;;6.30;3.22;;;;;;;;;;4982434;28;20046;-84
2022/08/26 17:26:54;;;;;;;6.40;3.92;;;;;;;;;;4966562;28;20046;-84
2022/08/26 17:29:28;;;;;;;10.40;4.47;;;;;;;;;;4978509;28;20387;-85
2022/08/26 17:32:20;;;;;;;9.73;4.78;;;;;;;;;;4958077;28;20026;-84
2022/08/26 17:34:54;;;;;;;11.53;5.17;;;;;;;;;;4983202;28;20042;-84
2022/08/26 17:37:24;;;;;;;9.38;5.05;;;;;;;;;;4983366;28;20137;-84
2022/08/26 17:40:10;;;;;;;10.13;4.93;;;;;;;;;;4962578;28;20042;-83
2022/08/26 17:43:17;;;;;;;8.50;4.80;;;;;;;;;;4957745;28;20753;-84
2022/08/26 17:46:06;;;;;;;11.80;5.03;;;;;;;;;;4984738;28;20072;-84
2022/08/26 17:48:48;;;;;;;8.93;4.35;;;;;;;;;;4977398;28;20065;-84
2022/08/26 17:51:24;;;;;;;11.80;4.40;;;;;;;;;;4982461;28;20062;-84
2022/08/26 17:53:53;;;;;;;8.13;4.45;;;;;;;;;;4981860;28;20041;-84
2022/08/26 17:56:44;;;;;;;9.93;4.55;;;;;;;;;;4970921;28;20080;-83
2022/08/26 17:59:12;;;;;;;10.93;4.63;;;;;;;;;;4969478;28;20042;-83
2022/08/26 18:01:46;;;;;;;10.77;4.30;;;;;;;;;;4958893;28;20038;-83
2022/08/26 18:04:19;;;;;;;9.20;4.40;;;;;;;;;;4966321;28;20514;-84
2022/08/26 18:06:46;;;;;;;7.70;4.47;;;;;;;;;;4986304;28;20042;-84
2022/08/26 18:09:14;;;;;;;7.57;4.25;;;;;;;;;;4952547;28;20165;-85
2022/08/26 18:11:44;;;;;;;11.90;4.80;;;;;;;;;;4988040;28;20046;-85
2022/08/26 18:14:12;;;;;;;10.20;4.57;;;;;;;;;;4973297;28;20152;-82
2022/08/26 18:16:40;;;;;;;10.40;5.10;;;;;;;;;;4984557;28;20465;-83
2022/08/26 18:19:08;;;;;;;9.68;5.07;;;;;;;;;;4970501;28;20042;-84
2022/08/26 18:21:36;;;;;;;7.13;4.63;;;;;;;;;;4986804;28;20053;-84
2022/08/26 18:24:05;;;;;;;7.57;5.00;;;;;;;;;;4970452;28;20050;-84
2022/08/26 18:26:38;;;;;;;7.65;4.32;;;;;;;;;;4985595;28;20042;-85
2022/08/26 18:29:16;;;;;;;8.15;5.07;;;;;;;;;;4970804;28;20062;-87
2022/08/26 18:32:00;;;;;;;9.43;4.90;;;;;;;;;;4917829;29;20074;-85
2022/08/26 18:35:20;;;;;;;9.88;4.60;;;;;;;;;;4946808;28;20043;-85
2022/08/26 18:37:48;;;;;;;9.68;4.82;;;;;;;;;;4943469;28;20055;-84
2022/08/26 18:40:18;;;;;;;6.72;4.88;;;;;;;;;;4918434;29;20045;-84
2022/08/26 18:42:46;;;;;;;9.95;4.88;;;;;;;;;;4950651;29;20067;-83
2022/08/26 18:45:24;;;;;;;6.38;4.40;;;;;;;;;;4950775;29;21390;-83
2022/08/26 18:48:00;;;;;;;11.70;4.10;;;;;;;;;;4969496;29;20051;-82
2022/08/26 18:50:48;;;;;;;8.85;4.07;;;;;;;;;;4953820;29;20058;-83
2022/08/26 18:53:22;;;;;;;7.63;3.92;;;;;;;;;;4952248;29;20074;-84
2022/08/26 18:55:57;;;;;;;7.55;3.90;;;;;;;;;;4965492;28;20099;-84
2022/08/26 18:58:54;;;;;;;5.55;3.60;;;;;;;;;;4965336;29;20039;-84
2022/08/26 19:01:28;;;;;;;7.22;3.92;;;;;;;;;;4963600;28;20892;-84
2022/08/26 19:04:01;;;;;;;6.10;4.03;;;;;;;;;;5001586;28;20047;-84
2022/08/26 19:06:37;;;;;;;6.68;3.78;;;;;;;;;;4986739;28;20046;-84
2022/08/26 19:09:15;;;;;;;6.30;4.15;;;;;;;;;;5001527;28;20060;-85
2022/08/26 19:11:47;;;;;;;8.65;4.28;;;;;;;;;;5000403;28;20045;-83
2022/08/26 19:14:42;;;;;;;5.97;4.07;;;;;;;;;;4993528;28;20108;-84
2022/08/26 19:17:14;;;;;;;5.03;3.38;;;;;;;;;;4982989;28;20045;-84
2022/08/26 19:19:42;;;;;;;6.75;4.07;;;;;;;;;;5001492;28;20209;-83
2022/08/26 19:22:12;;;;;;;8.25;4.30;;;;;;;;;;4985134;28;20521;-83
2022/08/26 19:24:40;;;;;;;8.27;3.78;;;;;;;;;;4973844;28;20041;-84
2022/08/26 19:27:32;;;;;;;7.80;4.13;;;;;;;;;;4991532;28;20030;-84
2022/08/26 19:30:00;;;;;;;7.20;4.38;;;;;;;;;;5001235;28;20066;-84
2022/08/26 19:32:28;;;;;;;8.57;4.93;;;;;;;;;;4979123;28;20038;-83
2022/08/26 19:34:56;;;;;;;7.65;4.43;;;;;;;;;;4971728;28;20038;-84
2022/08/26 19:37:24;;;;;;;8.80;4.68;;;;;;;;;;4960202;28;20634;-85
2022/08/26 19:39:52;;;;;;;5.95;4.40;;;;;;;;;;4993992;28;20057;-84
2022/08/26 19:42:24;;;;;;;6.93;4.30;;;;;;;;;;4969203;28;20048;-84
2022/08/26 19:47:52;;;;;;;8.10;4.60;;;;;;;;;;4904960;29;20522;-85
2022/08/26 19:50:46;;;;;;;9.40;4.88;;;;;;;;;;4910782;29;20430;-84
2022/08/26 19:53:14;;;;;;;9.10;4.65;;;;;;;;;;4906093;29;20054;-84
2022/08/26 19:56:07;;;;;;;7.60;4.13;;;;;;;;;;4906841;29;20052;-85
2022/08/26 19:58:34;;;;;;;8.00;4.53;;;;;;;;;;4893420;29;20084;-83
2022/08/26 20:01:04;;;;;;;8.82;3.92;;;;;;;;;;4888945;29;20111;-82
2022/08/26 20:03:33;;;;;;;7.63;5.20;;;;;;;;;;4889833;29;20067;-84
2022/08/26 20:06:06;;;;;;;10.45;6.07;;;;;;;;;;4909420;29;20063;-83
2022/08/26 20:08:36;;;;;;;7.50;5.15;;;;;;;;;;4909395;29;20123;-83
2022/08/26 20:11:09;;;;;;;11.32;5.38;;;;;;;;;;4907255;29;20127;-84
2022/08/26 20:13:38;;;;;;;9.55;5.55;;;;;;;;;;4858593;29;20062;-84
2022/08/26 20:16:09;;;;;;;10.00;6.05;;;;;;;;;;4880941;29;20130;-83
2022/08/26 20:21:46;;;;;;;13.43;9.18;;;;;;;;;;4907150;29;20062;-83
2022/08/26 20:24:17;;;;;;;13.52;8.88;;;;;;;;;;4943717;28;20049;-83
2022/08/26 20:26:44;;;;;;;11.88;8.02;;;;;;;;;;4988394;28;20594;-83
2022/08/26 20:29:15;;;;;;;11.85;8.02;;;;;;;;;;4988343;28;20042;-83
2022/08/26 20:31:47;;;;;;;9.88;7.15;;;;;;;;;;4967059;28;20038;-83
2022/08/26 20:34:38;;;;;;;9.95;6.13;;;;;;;;;;4969122;28;20180;-84
2022/08/26 20:37:33;;;;;;;12.07;6.38;;;;;;;;;;4992446;28;20045;-83
2022/08/26 20:40:24;;;;;;;9.52;6.20;;;;;;;;;;4974998;28;20137;-83
2022/08/26 20:43:26;;;;;;;8.77;6.00;;;;;;;;;;4981623;28;20049;-83